createdAt,value
2019-03-26T00:00:58.756Z,1.01
2019-03-26T00:06:10.529Z,1.28
2019-03-26T00:11:09.520Z,0.52
2019-03-26T00:16:18.546Z,0.77
2019-03-26T00:21:27.499Z,1.33
2019-03-26T00:26:38.544Z,0.77
2019-03-26T00:31:37.497Z,0.90
2019-03-26T00:36:46.471Z,0.85
2019-03-26T00:41:55.382Z,1.01
2019-03-26T00:47:04.354Z,0.69
2019-03-26T00:52:13.293Z,0.80
2019-03-26T00:57:22.258Z,0.86
2019-03-26T01:02:31.218Z,0.67
2019-03-26T01:07:40.270Z,0.81
2019-03-26T01:12:49.190Z,0.87
2019-03-26T01:17:58.246Z,1.03
2019-03-26T01:23:10.606Z,1.28
2019-03-26T01:28:09.597Z,0.90
2019-03-26T01:33:18.536Z,0.82
2019-03-26T01:38:27.543Z,0.66
2019-03-26T01:43:36.478Z,0.94
2019-03-26T01:48:45.540Z,0.93
2019-03-26T01:53:54.474Z,0.55
2019-03-26T01:59:03.521Z,0.47
2019-03-26T02:04:12.527Z,0.83
2019-03-26T02:09:21.686Z,0.85
2019-03-26T02:14:30.622Z,0.73
2019-03-26T02:19:39.630Z,1.12
2019-03-26T02:24:48.554Z,0.84
2019-03-26T02:29:57.867Z,0.64
2019-03-26T02:35:17.938Z,0.78
2019-03-26T02:40:15.396Z,0.85
2019-03-26T02:45:24.387Z,0.82
2019-03-26T02:50:33.458Z,0.80
2019-03-26T02:55:42.442Z,0.74
2019-03-26T03:00:51.431Z,0.60
2019-03-26T03:06:00.425Z,0.33
2019-03-26T03:11:10.543Z,0.64
2019-03-26T03:16:09.547Z,0.63
2019-03-26T03:21:18.573Z,0.51
2019-03-26T03:26:27.564Z,0.66
2019-03-26T03:31:36.737Z,0.62
2019-03-26T03:36:45.722Z,0.95
2019-03-26T03:41:54.687Z,0.86
2019-03-26T03:47:03.661Z,0.80
2019-03-26T03:52:12.591Z,1.16
2019-03-26T03:57:21.613Z,0.64
2019-03-26T04:02:30.588Z,0.65
2019-03-26T04:07:39.551Z,0.85
2019-03-26T04:12:48.483Z,0.95
2019-03-26T04:17:57.409Z,0.53
2019-03-26T04:23:06.360Z,0.55
2019-03-26T04:28:15.443Z,0.60
2019-03-26T04:33:24.338Z,0.92
2019-03-26T04:38:33.291Z,0.41
2019-03-26T04:43:42.237Z,0.69
2019-03-26T04:48:51.186Z,0.71
2019-03-26T04:54:00.151Z,0.53
2019-03-26T04:59:09.072Z,0.58
2019-03-26T05:04:18.414Z,0.65
2019-03-26T05:09:27.362Z,0.85
2019-03-26T05:14:36.365Z,0.61
2019-03-26T05:19:45.346Z,0.64
2019-03-26T05:24:54.376Z,0.73
2019-03-26T05:30:03.359Z,0.88
2019-03-26T05:35:12.410Z,0.78
2019-03-26T05:40:21.330Z,1.26
2019-03-26T05:45:30.350Z,0.77
2019-03-26T05:50:39.341Z,1.12
2019-03-26T05:55:48.354Z,1.02
2019-03-26T06:00:57.283Z,1.13
2019-03-26T06:06:06.295Z,0.95
2019-03-26T06:11:15.282Z,1.03
2019-03-26T06:16:37.647Z,0.84
2019-03-26T06:21:32.754Z,1.02
2019-03-26T06:26:41.816Z,1.26
2019-03-26T06:31:50.810Z,1.13
2019-03-26T06:36:59.862Z,1.20
2019-03-26T06:42:08.868Z,1.19
2019-03-26T06:47:17.889Z,1.50
2019-03-26T06:52:26.882Z,1.16
2019-03-26T06:57:36.124Z,1.28
2019-03-26T07:02:44.890Z,1.09
2019-03-26T07:07:54.202Z,1.34
2019-03-26T07:13:03.248Z,1.24
2019-03-26T07:18:12.242Z,1.09
2019-03-26T07:23:21.239Z,1.06
2019-03-26T07:28:30.247Z,1.36
2019-03-26T07:33:39.235Z,1.08
2019-03-26T07:38:48.282Z,1.45
2019-03-26T07:43:57.263Z,1.33
2019-03-26T07:49:06.302Z,1.01
2019-03-26T07:54:15.290Z,1.44
2019-03-26T07:59:24.302Z,0.82
2019-03-26T08:04:33.241Z,0.97
2019-03-26T08:09:42.248Z,1.14
2019-03-26T08:14:51.205Z,1.30
2019-03-26T08:20:00.358Z,1.21
2019-03-26T08:25:09.162Z,0.99
2019-03-26T08:30:18.115Z,0.93
2019-03-26T08:35:27.054Z,0.57
2019-03-26T08:40:36.039Z,1.02
2019-03-26T08:45:44.974Z,1.03
2019-03-26T08:50:53.923Z,1.16
2019-03-26T08:56:02.879Z,0.76
2019-03-26T09:01:12.019Z,1.30
2019-03-26T09:06:20.953Z,0.89
2019-03-26T09:11:29.930Z,1.09
2019-03-26T09:16:38.869Z,0.81
2019-03-26T09:21:47.842Z,0.52
2019-03-26T09:26:56.838Z,0.39
2019-03-26T09:32:05.792Z,0.61
2019-03-26T09:37:17.781Z,0.71
2019-03-26T09:42:16.806Z,0.43
2019-03-26T09:47:25.786Z,1.03
2019-03-26T09:52:34.807Z,0.72
2019-03-26T09:57:43.789Z,1.26
2019-03-26T10:02:52.803Z,0.45
2019-03-26T10:08:01.791Z,0.73
2019-03-26T10:13:10.759Z,1.08
2019-03-26T10:18:19.755Z,0.80
2019-03-26T10:23:28.751Z,0.89
2019-03-26T10:28:37.734Z,0.63
2019-03-26T10:33:46.687Z,0.62
2019-03-26T10:39:05.071Z,0.67
2019-03-26T10:44:04.270Z,1.07
2019-03-26T10:49:13.254Z,1.53
2019-03-26T10:54:22.267Z,0.67
2019-03-26T10:59:31.266Z,1.05
2019-03-26T11:04:40.266Z,0.73
2019-03-26T11:09:49.234Z,0.83
2019-03-26T11:14:58.306Z,0.94
2019-03-26T11:20:07.282Z,1.05
2019-03-26T11:25:16.282Z,1.06
2019-03-26T11:30:25.285Z,0.90
2019-03-26T11:35:34.283Z,0.80
2019-03-26T11:40:43.270Z,0.91
2019-03-26T11:45:52.326Z,0.76
2019-03-26T11:51:01.319Z,0.71
2019-03-26T11:56:10.378Z,1.05
2019-03-26T12:01:19.367Z,0.81
2019-03-26T12:06:28.398Z,0.79
2019-03-26T12:11:37.359Z,0.85
2019-03-26T12:16:46.367Z,0.88
2019-03-26T12:21:55.354Z,0.89
2019-03-26T12:27:04.430Z,0.76
2019-03-26T12:32:13.382Z,0.95
2019-03-26T12:37:22.429Z,0.81
2019-03-26T12:42:31.422Z,1.15
2019-03-26T12:47:40.430Z,0.97
2019-03-26T12:52:49.363Z,0.96
2019-03-26T12:57:58.605Z,0.98
2019-03-26T13:03:07.594Z,1.12
2019-03-26T13:08:16.818Z,0.99
2019-03-26T13:13:25.898Z,1.16
2019-03-26T13:18:34.928Z,0.90
2019-03-26T13:23:43.931Z,0.94
2019-03-26T13:28:52.982Z,0.96
2019-03-26T13:34:01.928Z,1.15
2019-03-26T13:39:10.879Z,0.85
2019-03-26T13:44:19.874Z,0.88
2019-03-26T13:49:28.930Z,0.89
2019-03-26T13:54:37.926Z,0.70
2019-03-26T13:59:49.031Z,1.12
2019-03-26T14:04:55.395Z,1.05
2019-03-26T14:10:04.426Z,0.91
2019-03-26T14:15:13.422Z,0.90
2019-03-26T14:20:22.431Z,1.07
2019-03-26T14:25:31.422Z,0.98
2019-03-26T14:30:40.494Z,1.29
2019-03-26T14:35:49.498Z,0.77
2019-03-26T14:40:58.450Z,0.94
2019-03-26T14:46:07.442Z,0.91
2019-03-26T14:51:16.522Z,0.90
2019-03-26T14:56:25.491Z,0.99
2019-03-26T15:01:34.562Z,0.84
2019-03-26T15:06:43.558Z,0.93
2019-03-26T15:11:52.571Z,0.95
2019-03-26T15:17:01.562Z,1.17
2019-03-26T15:22:10.566Z,1.40
2019-03-26T15:27:19.562Z,1.47
2019-03-26T15:32:28.593Z,1.43
2019-03-26T15:37:37.595Z,1.61
2019-03-26T15:42:46.632Z,1.35
2019-03-26T15:47:55.634Z,1.55
2019-03-26T15:53:04.686Z,1.40
2019-03-26T15:58:13.682Z,1.54
2019-03-26T16:03:22.744Z,1.52
2019-03-26T16:08:31.722Z,1.89
2019-03-26T16:13:40.730Z,1.58
2019-03-26T16:18:49.706Z,1.75
2019-03-26T16:23:58.763Z,1.97
2019-03-26T16:29:07.690Z,2.15
2019-03-26T16:34:16.862Z,1.79
2019-03-26T16:39:25.818Z,2.12
2019-03-26T16:44:34.827Z,2.05
2019-03-26T16:49:43.819Z,1.54
2019-03-26T16:54:52.895Z,1.84
2019-03-26T17:00:01.848Z,1.62
2019-03-26T17:05:10.863Z,1.69
2019-03-26T17:10:19.790Z,1.61
2019-03-26T17:15:28.858Z,1.53
2019-03-26T17:20:37.816Z,1.70
2019-03-26T17:25:46.836Z,1.87
2019-03-26T17:30:55.818Z,1.56
2019-03-26T17:36:04.815Z,1.85
2019-03-26T17:41:13.746Z,1.37
2019-03-26T17:46:22.727Z,1.26
2019-03-26T17:51:31.695Z,1.73
2019-03-26T17:56:40.659Z,1.92
2019-03-26T18:01:49.603Z,1.66
2019-03-26T18:06:58.602Z,1.35
2019-03-26T18:12:07.547Z,1.60
2019-03-26T18:17:16.598Z,1.33
2019-03-26T18:22:25.535Z,1.57
2019-03-26T18:27:34.540Z,1.75
2019-03-26T18:32:43.472Z,1.69
2019-03-26T18:37:52.436Z,1.87
2019-03-26T18:43:01.382Z,2.08
2019-03-26T18:48:10.444Z,2.63
2019-03-26T18:53:19.326Z,2.64
2019-03-26T18:58:28.417Z,2.60
2019-03-26T19:03:37.400Z,2.62
2019-03-26T19:08:46.430Z,3.34
2019-03-26T19:13:55.352Z,3.02
2019-03-26T19:19:04.374Z,3.22
2019-03-26T19:24:13.316Z,3.74
2019-03-26T19:29:22.387Z,3.47
2019-03-26T19:34:31.334Z,3.55
2019-03-26T19:39:40.383Z,4.02
2019-03-26T19:44:49.339Z,4.24
2019-03-26T19:49:58.350Z,3.78
2019-03-26T19:55:07.278Z,4.75
2019-03-26T20:00:16.295Z,3.84
2019-03-26T20:05:25.226Z,3.99
2019-03-26T20:10:34.242Z,4.36
2019-03-26T20:15:43.195Z,3.51
2019-03-26T20:20:52.190Z,3.59
2019-03-26T20:26:01.147Z,4.16
2019-03-26T20:31:10.158Z,4.45
2019-03-26T20:36:19.127Z,4.23
2019-03-26T20:41:28.082Z,4.17
2019-03-26T20:46:37.032Z,4.01
2019-03-26T20:51:46.060Z,4.11
2019-03-26T20:56:55.006Z,4.29
2019-03-26T21:02:03.988Z,4.62
2019-03-26T21:07:12.930Z,5.01
2019-03-26T21:12:21.943Z,4.56
2019-03-26T21:17:30.901Z,4.54
2019-03-26T21:22:39.845Z,4.19
2019-03-26T21:27:48.807Z,4.00
2019-03-26T21:32:57.826Z,5.05
2019-03-26T21:38:06.764Z,4.66
2019-03-26T21:43:15.711Z,4.15
2019-03-26T21:48:24.706Z,4.16
2019-03-26T21:53:33.734Z,3.82
2019-03-26T21:58:42.718Z,4.40
2019-03-26T22:03:51.751Z,3.36
2019-03-26T22:09:00.726Z,3.77
2019-03-26T22:14:18.011Z,4.04
2019-03-26T22:19:27.970Z,4.32
2019-03-26T22:24:26.838Z,3.80
2019-03-26T22:29:35.858Z,4.06
2019-03-26T22:34:44.910Z,3.72
2019-03-26T22:39:53.915Z,3.62
2019-03-26T22:45:02.918Z,3.87
2019-03-26T22:50:11.922Z,4.22
2019-03-26T22:55:20.980Z,5.43
2019-03-26T23:00:29.970Z,4.65
2019-03-26T23:05:39.034Z,4.47
2019-03-26T23:10:48.058Z,4.84
2019-03-26T23:15:57.163Z,4.53
2019-03-26T23:21:06.183Z,5.53
2019-03-26T23:26:15.231Z,4.55
2019-03-26T23:31:24.202Z,4.32
2019-03-26T23:36:33.210Z,5.31
2019-03-26T23:41:42.194Z,4.79
2019-03-26T23:46:51.195Z,5.66
2019-03-26T23:52:00.171Z,4.72
2019-03-26T23:57:09.276Z,4.91
